• Join FlightAware (Why Join?)
  • Login
  • US Flag 
01:13AM EDT


 

Airport Tracker/Info


-or-


 

Live Flight TrackerFlight Track Log ✈ FIN666 ✈ 28-Nov-2013 ✈ EKCH / CPH - EFHK / HEL

Flight Track Log - Related Links

Times and Time Zones

All times are in EST time to prevent confusion due to time zone crossing. See the FIN666 flight status page for this flight to view local times or setup timezone preferences in your user account.

Time Position Orientation Groundspeed Altitude Reporting Facility
EST Latitude Longitude Course Direction KTS MPH feet Rate Location/Type
07:23AM 55.8272 13.0881 49° Northeast  Level Estimated
07:24AM 55.8966 13.2332 49° Northeast  Level Estimated
07:25AM 55.9658 13.3788 50° Northeast  Level Estimated
07:26AM 56.0349 13.5249 50° Northeast  Level Estimated
07:27AM 56.1047 13.6735 50° Northeast  Level Estimated
07:28AM 56.1743 13.8227 50° Northeast  Level Estimated
07:29AM 56.2438 13.9724 50° Northeast  Level Estimated
07:30AM 56.3131 14.1227 50° Northeast  Level Estimated
07:31AM 56.3822 14.2735 50° Northeast  Level Estimated
07:32AM 56.4511 14.4248 50° Northeast  Level Estimated
07:33AM 56.5198 14.5767 51° Northeast  Level Estimated
07:34AM 56.5883 14.7292 51° Northeast  Level Estimated
07:35AM 56.6567 14.8822 51° Northeast  Level Estimated
07:36AM 56.7249 15.0357 51° Northeast  Level Estimated
07:37AM 56.7929 15.1898 51° Northeast  Level Estimated
07:38AM 56.8606 15.3445 51° Northeast  Level Estimated
07:39AM 56.9282 15.4998 51° Northeast  Level Estimated
07:40AM 56.9957 15.6555 52° Northeast  Level Estimated
07:41AM 57.0629 15.8119 52° Northeast  Level Estimated
07:42AM 57.1299 15.9688 52° Northeast  Level Estimated
07:43AM 57.1967 16.1263 52° Northeast  Level Estimated
07:44AM 57.2633 16.2844 52° Northeast  Level Estimated
07:45AM 57.3297 16.4430 52° Northeast  Level Estimated
07:46AM 57.3960 16.6022 52° Northeast  Level Estimated
07:47AM 57.4620 16.7620 52° Northeast  Level Estimated
07:48AM 57.5269 16.9202 53° Northeast  Level Estimated
07:49AM 57.5916 17.0790 53° Northeast  Level Estimated
07:50AM 57.6562 17.2384 53° Northeast  Level Estimated
07:51AM 57.7205 17.3983 53° Northeast  Level Estimated
07:52AM 57.7847 17.5588 53° Northeast  Level Estimated
07:53AM 57.8486 17.7198 53° Northeast  Level Estimated
07:54AM 57.9123 17.8815 53° Northeast  Level Estimated
07:55AM 57.9758 18.0437 54° Northeast  Level Estimated
07:56AM 58.0392 18.2064 54° Northeast  Level Estimated
07:57AM 58.1023 18.3698 54° Northeast  Level Estimated
07:58AM 58.1652 18.5337 54° Northeast  Level Estimated
07:59AM 58.2279 18.6982 54° Northeast  Level Estimated
08:00AM 58.2903 18.8633 54° Northeast  Level Estimated
08:01AM 58.3526 19.0290 54° Northeast  Level Estimated
08:02AM 58.4146 19.1953 54° Northeast  Level Estimated
08:03AM 58.4765 19.3621 55° Northeast  Level Estimated
08:04AM 58.5381 19.5296 55° Northeast  Level Estimated
08:05AM 58.5995 19.6976 55° Northeast  Level Estimated
08:06AM 58.6606 19.8662 55° Northeast  Level Estimated
08:07AM 58.7216 20.0354 55° Northeast  Level Estimated
08:08AM 58.7823 20.2052 55° Northeast  Level Estimated
08:09AM 58.8428 20.3756 55° Northeast  Level Estimated
08:10AM 58.9031 20.5465 56° Northeast  Level Estimated
08:11AM 58.9632 20.7181 56° Northeast  Level Estimated
08:12AM 59.0230 20.8903 56° Northeast  Level Estimated
08:13AM 59.0826 21.0631 56° Northeast  Level Estimated
08:14AM 59.1420 21.2365 56° Northeast  Level Estimated
08:15AM 59.2011 21.4104 56° Northeast  Level Estimated
08:16AM 59.2600 21.5850 57° Northeast  Level Estimated
08:17AM 59.3187 21.7602 57° Northeast  Level Estimated
08:18AM 59.3771 21.9360 57° Northeast  Level Estimated
08:19AM 59.4353 22.1124 57° Northeast  Level Estimated
08:20AM 59.4933 22.2894 57° Northeast  Level Estimated
08:21AM 59.5510 22.4670 57° Northeast  Level Estimated
08:22AM 59.6085 22.6452 57° Northeast  Level Estimated
08:23AM 59.6657 22.8240 58° Northeast  Level Estimated
08:24AM 59.7227 23.0035 58° Northeast  Level Estimated
08:25AM 59.7794 23.1835 58° Northeast  Level Estimated
08:26AM 59.8359 23.3642 58° Northeast  Level Estimated
08:27AM 59.8922 23.5455 58° Northeast  Level Estimated
08:28AM 59.9482 23.7274 58° Northeast  Level Estimated
08:29AM 60.0039 23.9098 59° Northeast  Level Estimated
08:30AM 60.0594 24.0930 59° Northeast  Level Estimated
08:31AM 60.1146 24.2767 59° Northeast  Level Estimated
08:32AM 60.1696 24.4611 59° Northeast  Level Estimated
08:33AM 60.2243 24.6460 59° Northeast  Level Estimated
08:34AM 60.2788 24.8316 59° Northeast  Level Estimated
08:35AM 60.3172 24.9633 59° Northeast  Level Estimated
08:36AM 60.3172 24.9633 37° Northeast  Level Estimated
08:37AM 60.3172 24.9633 37° Northeast  Level Estimated
08:38AM 60.3172 24.9633 37° Northeast  Level Estimated
08:39AM 60.3172 24.9633 37° Northeast  Level Estimated
08:40AM 60.3172 24.9633 37° Northeast  Level Estimated
08:41AM 60.3172 24.9633 37° Northeast  Level Estimated
08:42AM 60.3172 24.9633 37° Northeast  Level Estimated
08:43AM 60.3172 24.9633 37° Northeast  Level Estimated
08:44AM 60.3172 24.9633 37° Northeast  Level Estimated